sensor_id;sensor_type;location;lat;lon;timestamp;temperature;humidity
11824;DHT22;5969;50.780;7.726;2022-12-20T00:01:12;8.20;99.90
11824;DHT22;5969;50.780;7.726;2022-12-20T00:03:40;8.20;99.90
11824;DHT22;5969;50.780;7.726;2022-12-20T00:06:07;8.20;99.90
11824;DHT22;5969;50.780;7.726;2022-12-20T00:08:36;8.10;99.90
11824;DHT22;5969;50.780;7.726;2022-12-20T00:11:05;8.00;99.90
11824;DHT22;5969;50.780;7.726;2022-12-20T00:13:34;8.00;99.90
11824;DHT22;5969;50.780;7.726;2022-12-20T00:16:06;7.90;99.90
11824;DHT22;5969;50.780;7.726;2022-12-20T00:18:33;8.00;99.90
11824;DHT22;5969;50.780;7.726;2022-12-20T00:21:01;7.90;99.90
11824;DHT22;5969;50.780;7.726;2022-12-20T00:23:29;7.90;99.90
11824;DHT22;5969;50.780;7.726;2022-12-20T00:26:00;7.90;99.90
11824;DHT22;5969;50.780;7.726;2022-12-20T00:28:27;7.90;99.90
11824;DHT22;5969;50.780;7.726;2022-12-20T00:30:56;7.90;99.90
11824;DHT22;5969;50.780;7.726;2022-12-20T00:33:23;7.90;99.90
11824;DHT22;5969;50.780;7.726;2022-12-20T00:35:50;7.90;99.90
11824;DHT22;5969;50.780;7.726;2022-12-20T00:38:17;7.90;99.90
11824;DHT22;5969;50.780;7.726;2022-12-20T00:40:44;8.00;99.90
11824;DHT22;5969;50.780;7.726;2022-12-20T00:43:11;8.00;99.90
11824;DHT22;5969;50.780;7.726;2022-12-20T00:45:38;7.90;99.90
11824;DHT22;5969;50.780;7.726;2022-12-20T00:48:06;7.80;99.90
11824;DHT22;5969;50.780;7.726;2022-12-20T00:50:33;7.90;99.90
11824;DHT22;5969;50.780;7.726;2022-12-20T00:53:00;7.80;99.90
11824;DHT22;5969;50.780;7.726;2022-12-20T00:55:27;8.00;99.90
11824;DHT22;5969;50.780;7.726;2022-12-20T00:57:54;7.90;99.90
11824;DHT22;5969;50.780;7.726;2022-12-20T01:00:20;7.80;99.90
11824;DHT22;5969;50.780;7.726;2022-12-20T01:02:47;7.70;99.90
11824;DHT22;5969;50.780;7.726;2022-12-20T01:05:16;7.60;99.90
11824;DHT22;5969;50.780;7.726;2022-12-20T01:07:43;7.60;99.90
11824;DHT22;5969;50.780;7.726;2022-12-20T01:10:10;7.60;99.90
11824;DHT22;5969;50.780;7.726;2022-12-20T01:12:37;7.60;99.90
11824;DHT22;5969;50.780;7.726;2022-12-20T01:15:04;7.70;99.90
11824;DHT22;5969;50.780;7.726;2022-12-20T01:17:32;7.60;99.90
11824;DHT22;5969;50.780;7.726;2022-12-20T01:19:59;7.60;99.90
11824;DHT22;5969;50.780;7.726;2022-12-20T01:22:27;7.60;99.90
11824;DHT22;5969;50.780;7.726;2022-12-20T01:24:54;7.40;99.90
11824;DHT22;5969;50.780;7.726;2022-12-20T01:27:21;7.30;99.90
11824;DHT22;5969;50.780;7.726;2022-12-20T01:29:48;7.30;99.90
11824;DHT22;5969;50.780;7.726;2022-12-20T01:32:15;7.40;99.90
11824;DHT22;5969;50.780;7.726;2022-12-20T01:34:42;7.40;99.90
11824;DHT22;5969;50.780;7.726;2022-12-20T01:37:08;7.40;99.90
11824;DHT22;5969;50.780;7.726;2022-12-20T01:39:37;7.30;99.90
11824;DHT22;5969;50.780;7.726;2022-12-20T01:42:04;7.20;99.90
11824;DHT22;5969;50.780;7.726;2022-12-20T01:45:06;7.20;99.90
11824;DHT22;5969;50.780;7.726;2022-12-20T01:47:36;7.20;99.90
11824;DHT22;5969;50.780;7.726;2022-12-20T01:50:04;7.10;99.90
11824;DHT22;5969;50.780;7.726;2022-12-20T01:52:34;7.10;99.90
11824;DHT22;5969;50.780;7.726;2022-12-20T01:55:08;7.00;99.90
11824;DHT22;5969;50.780;7.726;2022-12-20T01:57:39;7.00;99.90
11824;DHT22;5969;50.780;7.726;2022-12-20T02:00:08;7.00;99.90
11824;DHT22;5969;50.780;7.726;2022-12-20T02:02:36;7.00;99.90
11824;DHT22;5969;50.780;7.726;2022-12-20T02:05:04;7.00;99.90
11824;DHT22;5969;50.780;7.726;2022-12-20T02:07:35;7.20;99.90
11824;DHT22;5969;50.780;7.726;2022-12-20T02:10:07;7.00;99.90
11824;DHT22;5969;50.780;7.726;2022-12-20T02:12:38;7.00;99.90
11824;DHT22;5969;50.780;7.726;2022-12-20T02:15:26;7.10;99.90
11824;DHT22;5969;50.780;7.726;2022-12-20T02:18:03;7.00;99.90
11824;DHT22;5969;50.780;7.726;2022-12-20T02:20:55;6.90;99.90
11824;DHT22;5969;50.780;7.726;2022-12-20T02:24:14;6.90;99.90
11824;DHT22;5969;50.780;7.726;2022-12-20T02:27:14;6.80;99.90
11824;DHT22;5969;50.780;7.726;2022-12-20T02:30:08;6.80;99.90
11824;DHT22;5969;50.780;7.726;2022-12-20T02:32:38;6.70;99.90
11824;DHT22;5969;50.780;7.726;2022-12-20T02:35:07;6.80;99.90
11824;DHT22;5969;50.780;7.726;2022-12-20T02:37:35;6.80;99.90
11824;DHT22;5969;50.780;7.726;2022-12-20T02:40:04;6.80;99.90
11824;DHT22;5969;50.780;7.726;2022-12-20T02:42:32;6.90;99.90
11824;DHT22;5969;50.780;7.726;2022-12-20T02:45:04;6.90;99.90
11824;DHT22;5969;50.780;7.726;2022-12-20T02:47:44;6.90;99.90
11824;DHT22;5969;50.780;7.726;2022-12-20T02:50:13;6.80;99.90
11824;DHT22;5969;50.780;7.726;2022-12-20T02:52:42;6.90;99.90
11824;DHT22;5969;50.780;7.726;2022-12-20T02:55:10;6.80;99.90
11824;DHT22;5969;50.780;7.726;2022-12-20T02:57:44;6.80;99.90
11824;DHT22;5969;50.780;7.726;2022-12-20T03:00:14;6.80;99.90
11824;DHT22;5969;50.780;7.726;2022-12-20T03:02:43;6.80;99.90
11824;DHT22;5969;50.780;7.726;2022-12-20T03:05:28;6.90;99.90
11824;DHT22;5969;50.780;7.726;2022-12-20T03:07:55;6.90;99.90
11824;DHT22;5969;50.780;7.726;2022-12-20T03:10:22;7.00;99.90
11824;DHT22;5969;50.780;7.726;2022-12-20T03:12:49;7.00;99.90
11824;DHT22;5969;50.780;7.726;2022-12-20T03:15:17;7.00;99.90
11824;DHT22;5969;50.780;7.726;2022-12-20T03:17:44;6.90;99.90
11824;DHT22;5969;50.780;7.726;2022-12-20T03:20:11;6.90;99.90
11824;DHT22;5969;50.780;7.726;2022-12-20T03:22:38;6.90;99.90
11824;DHT22;5969;50.780;7.726;2022-12-20T03:25:06;6.90;99.90
11824;DHT22;5969;50.780;7.726;2022-12-20T03:27:33;6.90;99.90
11824;DHT22;5969;50.780;7.726;2022-12-20T03:29:59;6.90;99.90
11824;DHT22;5969;50.780;7.726;2022-12-20T03:32:28;6.80;99.90
11824;DHT22;5969;50.780;7.726;2022-12-20T03:34:54;6.90;99.90
11824;DHT22;5969;50.780;7.726;2022-12-20T03:37:21;6.90;99.90
11824;DHT22;5969;50.780;7.726;2022-12-20T03:39:48;7.00;99.90
11824;DHT22;5969;50.780;7.726;2022-12-20T03:42:15;7.00;99.90
11824;DHT22;5969;50.780;7.726;2022-12-20T03:44:42;7.00;99.90
11824;DHT22;5969;50.780;7.726;2022-12-20T03:47:09;7.10;99.90
11824;DHT22;5969;50.780;7.726;2022-12-20T03:49:37;7.00;99.90
11824;DHT22;5969;50.780;7.726;2022-12-20T03:52:04;7.00;99.90
11824;DHT22;5969;50.780;7.726;2022-12-20T03:54:31;7.00;99.90
11824;DHT22;5969;50.780;7.726;2022-12-20T03:56:58;7.10;99.90
11824;DHT22;5969;50.780;7.726;2022-12-20T03:59:24;7.00;99.90
11824;DHT22;5969;50.780;7.726;2022-12-20T04:01:51;7.10;99.90
11824;DHT22;5969;50.780;7.726;2022-12-20T04:04:18;7.20;99.90
11824;DHT22;5969;50.780;7.726;2022-12-20T04:06:46;7.20;99.90
11824;DHT22;5969;50.780;7.726;2022-12-20T04:09:13;7.20;99.90
11824;DHT22;5969;50.780;7.726;2022-12-20T04:11:40;7.20;99.90
11824;DHT22;5969;50.780;7.726;2022-12-20T04:14:07;7.10;99.90
11824;DHT22;5969;50.780;7.726;2022-12-20T04:16:42;7.20;99.90
11824;DHT22;5969;50.780;7.726;2022-12-20T04:19:09;7.10;99.90
11824;DHT22;5969;50.780;7.726;2022-12-20T04:21:36;7.20;99.90
11824;DHT22;5969;50.780;7.726;2022-12-20T04:24:05;7.20;99.90
11824;DHT22;5969;50.780;7.726;2022-12-20T04:26:32;7.10;99.90
11824;DHT22;5969;50.780;7.726;2022-12-20T04:28:59;7.10;99.90
11824;DHT22;5969;50.780;7.726;2022-12-20T04:31:25;7.10;99.90
11824;DHT22;5969;50.780;7.726;2022-12-20T04:33:52;7.20;99.90
11824;DHT22;5969;50.780;7.726;2022-12-20T04:36:20;7.20;99.90
11824;DHT22;5969;50.780;7.726;2022-12-20T04:38:47;7.10;99.90
11824;DHT22;5969;50.780;7.726;2022-12-20T04:41:15;7.20;99.90
11824;DHT22;5969;50.780;7.726;2022-12-20T04:43:48;7.20;99.90
11824;DHT22;5969;50.780;7.726;2022-12-20T04:46:16;7.20;99.90
11824;DHT22;5969;50.780;7.726;2022-12-20T04:48:43;7.20;99.90
11824;DHT22;5969;50.780;7.726;2022-12-20T04:51:09;7.20;99.90
11824;DHT22;5969;50.780;7.726;2022-12-20T04:53:37;7.20;99.90
11824;DHT22;5969;50.780;7.726;2022-12-20T04:56:14;7.10;99.90
11824;DHT22;5969;50.780;7.726;2022-12-20T04:58:41;7.30;99.90
11824;DHT22;5969;50.780;7.726;2022-12-20T05:01:08;7.30;99.90
11824;DHT22;5969;50.780;7.726;2022-12-20T05:03:36;7.30;99.90
11824;DHT22;5969;50.780;7.726;2022-12-20T05:06:03;7.20;99.90
11824;DHT22;5969;50.780;7.726;2022-12-20T05:08:30;7.20;99.90
11824;DHT22;5969;50.780;7.726;2022-12-20T05:10:57;7.20;99.90
11824;DHT22;5969;50.780;7.726;2022-12-20T05:13:25;7.10;99.90
11824;DHT22;5969;50.780;7.726;2022-12-20T05:15:53;7.10;99.90
11824;DHT22;5969;50.780;7.726;2022-12-20T05:18:21;7.10;99.90
11824;DHT22;5969;50.780;7.726;2022-12-20T05:20:48;7.10;99.90
11824;DHT22;5969;50.780;7.726;2022-12-20T05:23:36;7.10;99.90
11824;DHT22;5969;50.780;7.726;2022-12-20T05:26:21;7.10;99.90
11824;DHT22;5969;50.780;7.726;2022-12-20T05:28:50;7.00;99.90
11824;DHT22;5969;50.780;7.726;2022-12-20T05:31:17;7.00;99.90
11824;DHT22;5969;50.780;7.726;2022-12-20T05:33:44;7.00;99.90
11824;DHT22;5969;50.780;7.726;2022-12-20T05:36:11;7.10;99.90
11824;DHT22;5969;50.780;7.726;2022-12-20T05:38:38;7.10;99.90
11824;DHT22;5969;50.780;7.726;2022-12-20T05:41:05;7.00;99.90
11824;DHT22;5969;50.780;7.726;2022-12-20T05:43:33;7.10;99.90
11824;DHT22;5969;50.780;7.726;2022-12-20T05:46:01;7.00;99.90
11824;DHT22;5969;50.780;7.726;2022-12-20T05:48:28;6.90;99.90
11824;DHT22;5969;50.780;7.726;2022-12-20T05:50:55;6.90;99.90
11824;DHT22;5969;50.780;7.726;2022-12-20T05:53:23;6.90;99.90
11824;DHT22;5969;50.780;7.726;2022-12-20T05:55:52;6.90;99.90
11824;DHT22;5969;50.780;7.726;2022-12-20T05:58:20;6.90;99.90
11824;DHT22;5969;50.780;7.726;2022-12-20T06:00:47;6.90;99.90
11824;DHT22;5969;50.780;7.726;2022-12-20T06:03:15;6.90;99.90
11824;DHT22;5969;50.780;7.726;2022-12-20T06:05:43;6.90;99.90
11824;DHT22;5969;50.780;7.726;2022-12-20T06:08:11;7.00;99.90
11824;DHT22;5969;50.780;7.726;2022-12-20T06:10:39;7.10;99.90
11824;DHT22;5969;50.780;7.726;2022-12-20T06:13:10;7.10;99.90
11824;DHT22;5969;50.780;7.726;2022-12-20T06:15:37;7.20;99.90
11824;DHT22;5969;50.780;7.726;2022-12-20T06:18:05;7.20;99.90
11824;DHT22;5969;50.780;7.726;2022-12-20T06:20:34;7.30;99.90
11824;DHT22;5969;50.780;7.726;2022-12-20T06:23:01;7.40;99.90
11824;DHT22;5969;50.780;7.726;2022-12-20T06:25:28;7.30;99.90
11824;DHT22;5969;50.780;7.726;2022-12-20T06:27:55;7.20;99.90
11824;DHT22;5969;50.780;7.726;2022-12-20T06:30:22;7.20;99.90
11824;DHT22;5969;50.780;7.726;2022-12-20T06:32:49;7.10;99.90
11824;DHT22;5969;50.780;7.726;2022-12-20T06:35:16;7.10;99.90
11824;DHT22;5969;50.780;7.726;2022-12-20T06:37:44;6.90;99.90
11824;DHT22;5969;50.780;7.726;2022-12-20T06:40:12;7.00;99.90
11824;DHT22;5969;50.780;7.726;2022-12-20T06:42:39;7.00;99.90
11824;DHT22;5969;50.780;7.726;2022-12-20T06:45:07;7.00;99.90
11824;DHT22;5969;50.780;7.726;2022-12-20T06:47:35;7.10;99.90
11824;DHT22;5969;50.780;7.726;2022-12-20T06:50:02;7.10;99.90
11824;DHT22;5969;50.780;7.726;2022-12-20T06:52:29;7.00;99.90
11824;DHT22;5969;50.780;7.726;2022-12-20T06:54:58;7.00;99.90
11824;DHT22;5969;50.780;7.726;2022-12-20T06:57:24;7.10;99.90
11824;DHT22;5969;50.780;7.726;2022-12-20T06:59:51;7.10;99.90
11824;DHT22;5969;50.780;7.726;2022-12-20T07:02:18;7.10;99.90
11824;DHT22;5969;50.780;7.726;2022-12-20T07:04:45;7.10;99.90
11824;DHT22;5969;50.780;7.726;2022-12-20T07:07:12;7.10;99.90
11824;DHT22;5969;50.780;7.726;2022-12-20T07:09:39;7.10;99.90
11824;DHT22;5969;50.780;7.726;2022-12-20T07:12:08;7.00;99.90
11824;DHT22;5969;50.780;7.726;2022-12-20T07:14:35;7.00;99.90
11824;DHT22;5969;50.780;7.726;2022-12-20T07:17:02;7.00;99.90
11824;DHT22;5969;50.780;7.726;2022-12-20T07:19:29;7.00;99.90
11824;DHT22;5969;50.780;7.726;2022-12-20T07:21:56;6.90;99.90
11824;DHT22;5969;50.780;7.726;2022-12-20T07:24:23;6.90;99.90
11824;DHT22;5969;50.780;7.726;2022-12-20T07:26:50;6.90;99.90
11824;DHT22;5969;50.780;7.726;2022-12-20T07:29:18;6.90;99.90
11824;DHT22;5969;50.780;7.726;2022-12-20T07:31:45;6.90;99.90
11824;DHT22;5969;50.780;7.726;2022-12-20T07:34:12;6.90;99.90
11824;DHT22;5969;50.780;7.726;2022-12-20T07:36:40;6.90;99.90
11824;DHT22;5969;50.780;7.726;2022-12-20T07:39:07;6.90;99.90
11824;DHT22;5969;50.780;7.726;2022-12-20T07:41:34;7.00;99.90
11824;DHT22;5969;50.780;7.726;2022-12-20T07:44:01;6.90;99.90
11824;DHT22;5969;50.780;7.726;2022-12-20T07:46:29;6.90;99.90
11824;DHT22;5969;50.780;7.726;2022-12-20T07:48:56;6.90;99.90
11824;DHT22;5969;50.780;7.726;2022-12-20T07:51:25;7.00;99.90
11824;DHT22;5969;50.780;7.726;2022-12-20T07:53:58;7.00;99.90
11824;DHT22;5969;50.780;7.726;2022-12-20T07:56:28;7.00;99.90
11824;DHT22;5969;50.780;7.726;2022-12-20T07:58:59;7.00;99.90
11824;DHT22;5969;50.780;7.726;2022-12-20T08:01:29;6.90;99.90
11824;DHT22;5969;50.780;7.726;2022-12-20T08:03:59;6.90;99.90
11824;DHT22;5969;50.780;7.726;2022-12-20T08:06:28;6.80;99.90
11824;DHT22;5969;50.780;7.726;2022-12-20T08:08:57;6.80;99.90
11824;DHT22;5969;50.780;7.726;2022-12-20T08:11:26;6.80;99.90
11824;DHT22;5969;50.780;7.726;2022-12-20T08:13:55;6.80;99.90
11824;DHT22;5969;50.780;7.726;2022-12-20T08:16:22;6.90;99.90
11824;DHT22;5969;50.780;7.726;2022-12-20T08:18:51;6.90;99.90
11824;DHT22;5969;50.780;7.726;2022-12-20T08:21:18;7.00;99.90
11824;DHT22;5969;50.780;7.726;2022-12-20T08:23:45;7.10;99.90
11824;DHT22;5969;50.780;7.726;2022-12-20T08:26:12;7.10;99.90
11824;DHT22;5969;50.780;7.726;2022-12-20T08:28:39;7.20;99.90
11824;DHT22;5969;50.780;7.726;2022-12-20T08:31:08;7.10;99.90
11824;DHT22;5969;50.780;7.726;2022-12-20T08:33:36;7.10;99.90
11824;DHT22;5969;50.780;7.726;2022-12-20T08:36:06;6.90;99.90
11824;DHT22;5969;50.780;7.726;2022-12-20T08:38:34;6.90;99.90
11824;DHT22;5969;50.780;7.726;2022-12-20T08:41:02;6.90;99.90
11824;DHT22;5969;50.780;7.726;2022-12-20T08:43:30;6.90;99.90
11824;DHT22;5969;50.780;7.726;2022-12-20T08:45:56;7.00;99.90
11824;DHT22;5969;50.780;7.726;2022-12-20T08:48:24;7.10;99.90
11824;DHT22;5969;50.780;7.726;2022-12-20T08:50:54;7.10;99.90
11824;DHT22;5969;50.780;7.726;2022-12-20T08:53:23;7.10;99.90
11824;DHT22;5969;50.780;7.726;2022-12-20T08:55:50;7.20;99.90
11824;DHT22;5969;50.780;7.726;2022-12-20T08:58:18;7.10;99.90
11824;DHT22;5969;50.780;7.726;2022-12-20T09:00:45;7.10;99.90
11824;DHT22;5969;50.780;7.726;2022-12-20T09:03:12;7.10;99.90
11824;DHT22;5969;50.780;7.726;2022-12-20T09:05:45;7.10;99.90
11824;DHT22;5969;50.780;7.726;2022-12-20T09:08:14;7.10;99.90
11824;DHT22;5969;50.780;7.726;2022-12-20T09:10:42;7.20;99.90
11824;DHT22;5969;50.780;7.726;2022-12-20T09:13:10;7.20;99.90
11824;DHT22;5969;50.780;7.726;2022-12-20T09:15:36;7.20;99.90
11824;DHT22;5969;50.780;7.726;2022-12-20T09:18:04;7.30;99.90
11824;DHT22;5969;50.780;7.726;2022-12-20T09:20:31;7.30;99.90
11824;DHT22;5969;50.780;7.726;2022-12-20T09:22:58;7.30;99.90
11824;DHT22;5969;50.780;7.726;2022-12-20T09:25:25;7.40;99.90
11824;DHT22;5969;50.780;7.726;2022-12-20T09:27:53;7.40;99.90
11824;DHT22;5969;50.780;7.726;2022-12-20T09:30:21;7.40;99.90
11824;DHT22;5969;50.780;7.726;2022-12-20T09:32:47;7.50;99.90
11824;DHT22;5969;50.780;7.726;2022-12-20T09:35:14;7.40;99.90
11824;DHT22;5969;50.780;7.726;2022-12-20T09:37:41;7.40;99.90
11824;DHT22;5969;50.780;7.726;2022-12-20T09:40:16;7.40;99.90
11824;DHT22;5969;50.780;7.726;2022-12-20T09:42:44;7.50;99.90
11824;DHT22;5969;50.780;7.726;2022-12-20T09:45:20;7.50;99.90
11824;DHT22;5969;50.780;7.726;2022-12-20T09:47:50;7.50;99.90
11824;DHT22;5969;50.780;7.726;2022-12-20T09:50:20;7.60;99.90
11824;DHT22;5969;50.780;7.726;2022-12-20T09:53:01;7.50;99.90
11824;DHT22;5969;50.780;7.726;2022-12-20T09:55:36;7.50;99.90
11824;DHT22;5969;50.780;7.726;2022-12-20T09:58:20;7.50;99.90
11824;DHT22;5969;50.780;7.726;2022-12-20T10:00:51;7.50;99.90
11824;DHT22;5969;50.780;7.726;2022-12-20T10:03:21;7.60;99.90
11824;DHT22;5969;50.780;7.726;2022-12-20T10:05:51;7.60;99.90
11824;DHT22;5969;50.780;7.726;2022-12-20T10:08:41;7.60;99.90
11824;DHT22;5969;50.780;7.726;2022-12-20T10:11:15;7.60;99.90
11824;DHT22;5969;50.780;7.726;2022-12-20T10:13:57;7.60;99.90
11824;DHT22;5969;50.780;7.726;2022-12-20T10:16:41;7.60;99.90
11824;DHT22;5969;50.780;7.726;2022-12-20T10:19:20;7.80;99.90
11824;DHT22;5969;50.780;7.726;2022-12-20T10:21:57;7.80;99.90
11824;DHT22;5969;50.780;7.726;2022-12-20T10:24:33;7.80;99.90
11824;DHT22;5969;50.780;7.726;2022-12-20T10:27:09;7.80;99.90
11824;DHT22;5969;50.780;7.726;2022-12-20T10:29:37;7.80;99.90
11824;DHT22;5969;50.780;7.726;2022-12-20T10:32:13;7.80;99.90
11824;DHT22;5969;50.780;7.726;2022-12-20T10:34:51;7.80;99.90
11824;DHT22;5969;50.780;7.726;2022-12-20T10:37:21;7.80;99.90
11824;DHT22;5969;50.780;7.726;2022-12-20T10:39:49;7.70;99.90
11824;DHT22;5969;50.780;7.726;2022-12-20T10:42:25;7.80;99.90
11824;DHT22;5969;50.780;7.726;2022-12-20T10:44:54;7.80;99.90
11824;DHT22;5969;50.780;7.726;2022-12-20T10:47:34;8.00;99.90
11824;DHT22;5969;50.780;7.726;2022-12-20T10:52:43;8.00;99.90
11824;DHT22;5969;50.780;7.726;2022-12-20T10:55:33;8.10;99.90
11824;DHT22;5969;50.780;7.726;2022-12-20T10:58:03;8.10;99.90
11824;DHT22;5969;50.780;7.726;2022-12-20T11:00:31;8.00;99.90
11824;DHT22;5969;50.780;7.726;2022-12-20T11:03:08;7.90;99.90
11824;DHT22;5969;50.780;7.726;2022-12-20T11:05:36;7.90;99.90
11824;DHT22;5969;50.780;7.726;2022-12-20T11:08:08;7.90;99.90
11824;DHT22;5969;50.780;7.726;2022-12-20T11:10:38;8.00;99.90
11824;DHT22;5969;50.780;7.726;2022-12-20T11:13:05;8.00;99.90
11824;DHT22;5969;50.780;7.726;2022-12-20T11:15:34;8.00;99.90
11824;DHT22;5969;50.780;7.726;2022-12-20T11:18:05;8.00;99.90
11824;DHT22;5969;50.780;7.726;2022-12-20T11:20:39;8.00;99.90
11824;DHT22;5969;50.780;7.726;2022-12-20T11:23:19;8.10;99.90
11824;DHT22;5969;50.780;7.726;2022-12-20T11:26:03;8.10;99.90
11824;DHT22;5969;50.780;7.726;2022-12-20T11:28:48;8.20;99.90
11824;DHT22;5969;50.780;7.726;2022-12-20T11:31:22;8.20;99.90
11824;DHT22;5969;50.780;7.726;2022-12-20T11:34:05;8.20;99.90
11824;DHT22;5969;50.780;7.726;2022-12-20T11:36:48;8.30;99.90
11824;DHT22;5969;50.780;7.726;2022-12-20T11:39:26;8.30;99.90
11824;DHT22;5969;50.780;7.726;2022-12-20T11:41:59;8.40;99.90
11824;DHT22;5969;50.780;7.726;2022-12-20T11:44:36;8.40;99.90
11824;DHT22;5969;50.780;7.726;2022-12-20T11:47:26;8.40;99.90
11824;DHT22;5969;50.780;7.726;2022-12-20T11:50:32;8.40;99.90
11824;DHT22;5969;50.780;7.726;2022-12-20T11:53:04;8.60;99.90
11824;DHT22;5969;50.780;7.726;2022-12-20T11:55:34;8.50;99.90
11824;DHT22;5969;50.780;7.726;2022-12-20T11:58:09;8.50;99.90
11824;DHT22;5969;50.780;7.726;2022-12-20T12:00:40;8.60;99.90
11824;DHT22;5969;50.780;7.726;2022-12-20T12:03:15;8.60;99.90
11824;DHT22;5969;50.780;7.726;2022-12-20T12:05:47;8.60;99.90
11824;DHT22;5969;50.780;7.726;2022-12-20T12:08:20;8.70;99.90
11824;DHT22;5969;50.780;7.726;2022-12-20T12:10:53;8.80;99.90
11824;DHT22;5969;50.780;7.726;2022-12-20T12:13:24;8.90;99.90
11824;DHT22;5969;50.780;7.726;2022-12-20T12:15:56;8.90;99.90
11824;DHT22;5969;50.780;7.726;2022-12-20T12:18:27;9.00;99.90
11824;DHT22;5969;50.780;7.726;2022-12-20T12:21:01;9.00;99.90
11824;DHT22;5969;50.780;7.726;2022-12-20T12:23:35;8.90;99.90
11824;DHT22;5969;50.780;7.726;2022-12-20T12:26:10;9.00;99.90
11824;DHT22;5969;50.780;7.726;2022-12-20T12:28:38;9.10;99.90
11824;DHT22;5969;50.780;7.726;2022-12-20T12:31:07;9.20;99.90
11824;DHT22;5969;50.780;7.726;2022-12-20T12:33:41;9.30;99.90
11824;DHT22;5969;50.780;7.726;2022-12-20T12:45:00;9.30;99.90
11824;DHT22;5969;50.780;7.726;2022-12-20T12:47:35;9.30;99.90
11824;DHT22;5969;50.780;7.726;2022-12-20T12:50:08;9.30;99.90
11824;DHT22;5969;50.780;7.726;2022-12-20T12:52:43;9.30;99.90
11824;DHT22;5969;50.780;7.726;2022-12-20T12:55:35;9.40;99.90
11824;DHT22;5969;50.780;7.726;2022-12-20T13:01:07;9.40;99.90
11824;DHT22;5969;50.780;7.726;2022-12-20T13:03:43;9.40;99.90
11824;DHT22;5969;50.780;7.726;2022-12-20T13:06:42;9.50;99.90
11824;DHT22;5969;50.780;7.726;2022-12-20T13:09:18;9.50;99.90
11824;DHT22;5969;50.780;7.726;2022-12-20T13:11:47;9.50;99.90
11824;DHT22;5969;50.780;7.726;2022-12-20T13:14:46;9.40;99.90
11824;DHT22;5969;50.780;7.726;2022-12-20T13:17:44;9.50;99.90
11824;DHT22;5969;50.780;7.726;2022-12-20T13:20:17;9.50;99.90
11824;DHT22;5969;50.780;7.726;2022-12-20T13:23:08;9.60;99.90
11824;DHT22;5969;50.780;7.726;2022-12-20T13:25:40;9.50;99.90
11824;DHT22;5969;50.780;7.726;2022-12-20T13:31:31;9.50;99.90
11824;DHT22;5969;50.780;7.726;2022-12-20T13:34:01;9.50;99.90
11824;DHT22;5969;50.780;7.726;2022-12-20T13:36:34;9.50;99.90
11824;DHT22;5969;50.780;7.726;2022-12-20T13:39:30;9.50;99.90
11824;DHT22;5969;50.780;7.726;2022-12-20T13:42:15;9.60;99.90
11824;DHT22;5969;50.780;7.726;2022-12-20T13:44:45;9.50;99.90
11824;DHT22;5969;50.780;7.726;2022-12-20T13:47:33;9.50;99.90
11824;DHT22;5969;50.780;7.726;2022-12-20T13:50:17;9.50;99.90
11824;DHT22;5969;50.780;7.726;2022-12-20T13:52:47;9.60;99.90
11824;DHT22;5969;50.780;7.726;2022-12-20T13:55:16;9.60;99.90
11824;DHT22;5969;50.780;7.726;2022-12-20T13:57:50;9.70;99.90
11824;DHT22;5969;50.780;7.726;2022-12-20T14:00:22;9.90;99.90
11824;DHT22;5969;50.780;7.726;2022-12-20T14:02:52;9.90;99.90
11824;DHT22;5969;50.780;7.726;2022-12-20T14:05:20;9.80;99.90
11824;DHT22;5969;50.780;7.726;2022-12-20T14:07:55;9.80;99.90
11824;DHT22;5969;50.780;7.726;2022-12-20T14:10:26;9.80;99.90
11824;DHT22;5969;50.780;7.726;2022-12-20T14:12:54;9.80;99.90
11824;DHT22;5969;50.780;7.726;2022-12-20T14:15:26;9.80;99.90
11824;DHT22;5969;50.780;7.726;2022-12-20T14:17:55;9.80;99.90
11824;DHT22;5969;50.780;7.726;2022-12-20T14:20:25;9.90;99.90
11824;DHT22;5969;50.780;7.726;2022-12-20T14:22:56;9.90;99.90
11824;DHT22;5969;50.780;7.726;2022-12-20T14:25:29;10.00;99.90
11824;DHT22;5969;50.780;7.726;2022-12-20T14:27:57;9.90;99.90
11824;DHT22;5969;50.780;7.726;2022-12-20T14:30:29;9.80;99.90
11824;DHT22;5969;50.780;7.726;2022-12-20T14:32:59;9.70;99.90
11824;DHT22;5969;50.780;7.726;2022-12-20T14:35:26;9.80;99.90
11824;DHT22;5969;50.780;7.726;2022-12-20T14:37:56;9.70;99.90
11824;DHT22;5969;50.780;7.726;2022-12-20T14:40:24;9.70;99.90
11824;DHT22;5969;50.780;7.726;2022-12-20T14:42:51;9.60;99.90
11824;DHT22;5969;50.780;7.726;2022-12-20T14:45:21;9.50;99.90
11824;DHT22;5969;50.780;7.726;2022-12-20T14:47:55;9.60;99.90
11824;DHT22;5969;50.780;7.726;2022-12-20T14:50:28;9.60;99.90
11824;DHT22;5969;50.780;7.726;2022-12-20T14:52:55;9.50;99.90
11824;DHT22;5969;50.780;7.726;2022-12-20T14:55:24;9.40;99.90
11824;DHT22;5969;50.780;7.726;2022-12-20T14:57:55;9.40;99.90
11824;DHT22;5969;50.780;7.726;2022-12-20T15:00:24;9.40;99.90
11824;DHT22;5969;50.780;7.726;2022-12-20T15:02:59;9.40;99.90
11824;DHT22;5969;50.780;7.726;2022-12-20T15:08:21;9.30;99.90
11824;DHT22;5969;50.780;7.726;2022-12-20T15:10:57;9.30;99.90
11824;DHT22;5969;50.780;7.726;2022-12-20T15:13:28;9.10;99.90
11824;DHT22;5969;50.780;7.726;2022-12-20T15:15:58;9.20;99.90
11824;DHT22;5969;50.780;7.726;2022-12-20T15:18:25;9.10;99.90
11824;DHT22;5969;50.780;7.726;2022-12-20T15:20:59;9.10;99.90
11824;DHT22;5969;50.780;7.726;2022-12-20T15:23:27;9.00;99.90
11824;DHT22;5969;50.780;7.726;2022-12-20T15:25:54;9.00;99.90
11824;DHT22;5969;50.780;7.726;2022-12-20T15:28:23;8.90;99.90
11824;DHT22;5969;50.780;7.726;2022-12-20T15:30:51;8.90;99.90
11824;DHT22;5969;50.780;7.726;2022-12-20T15:33:20;8.80;99.90
11824;DHT22;5969;50.780;7.726;2022-12-20T15:35:47;8.90;99.90
11824;DHT22;5969;50.780;7.726;2022-12-20T15:38:17;8.80;99.90
11824;DHT22;5969;50.780;7.726;2022-12-20T15:40:46;8.80;99.90
11824;DHT22;5969;50.780;7.726;2022-12-20T15:43:15;8.80;99.90
11824;DHT22;5969;50.780;7.726;2022-12-20T15:45:43;8.80;99.90
11824;DHT22;5969;50.780;7.726;2022-12-20T15:48:16;8.70;99.90
11824;DHT22;5969;50.780;7.726;2022-12-20T15:50:49;8.60;99.90
11824;DHT22;5969;50.780;7.726;2022-12-20T15:53:21;8.60;99.90
11824;DHT22;5969;50.780;7.726;2022-12-20T15:55:50;8.50;99.90
11824;DHT22;5969;50.780;7.726;2022-12-20T15:58:16;8.50;99.90
11824;DHT22;5969;50.780;7.726;2022-12-20T16:00:44;8.50;99.90
11824;DHT22;5969;50.780;7.726;2022-12-20T16:03:14;8.50;99.90
11824;DHT22;5969;50.780;7.726;2022-12-20T16:05:42;8.50;99.90
11824;DHT22;5969;50.780;7.726;2022-12-20T16:08:08;8.50;99.90
11824;DHT22;5969;50.780;7.726;2022-12-20T16:10:37;8.50;99.90
11824;DHT22;5969;50.780;7.726;2022-12-20T16:13:04;8.50;99.90
11824;DHT22;5969;50.780;7.726;2022-12-20T16:15:33;8.50;99.90
11824;DHT22;5969;50.780;7.726;2022-12-20T16:18:00;8.50;99.90
11824;DHT22;5969;50.780;7.726;2022-12-20T16:20:27;8.40;99.90
11824;DHT22;5969;50.780;7.726;2022-12-20T16:22:54;8.40;99.90
11824;DHT22;5969;50.780;7.726;2022-12-20T16:25:26;8.40;99.90
11824;DHT22;5969;50.780;7.726;2022-12-20T16:27:55;8.30;99.90
11824;DHT22;5969;50.780;7.726;2022-12-20T16:30:23;8.30;99.90
11824;DHT22;5969;50.780;7.726;2022-12-20T16:32:50;8.40;99.90
11824;DHT22;5969;50.780;7.726;2022-12-20T16:35:23;8.40;99.90
11824;DHT22;5969;50.780;7.726;2022-12-20T16:37:52;8.40;99.90
11824;DHT22;5969;50.780;7.726;2022-12-20T16:40:20;8.30;99.90
11824;DHT22;5969;50.780;7.726;2022-12-20T16:42:47;8.30;99.90
11824;DHT22;5969;50.780;7.726;2022-12-20T16:45:19;8.40;99.90